createdAt,value
2023-03-29T00:00:16.736Z,100025.16
2023-03-29T00:03:04.605Z,100036.50
2023-03-29T00:05:36.129Z,100018.94
2023-03-29T00:08:04.596Z,100035.38
2023-03-29T00:10:34.380Z,100027.25
2023-03-29T00:13:02.583Z,100028.19
2023-03-29T00:15:30.067Z,100035.66
2023-03-29T00:17:57.776Z,100038.56
2023-03-29T00:20:25.780Z,100032.19
2023-03-29T00:22:53.201Z,100042.00
2023-03-29T00:25:20.913Z,100035.13
2023-03-29T00:27:48.455Z,100036.75
2023-03-29T00:30:16.523Z,100045.91
2023-03-29T00:32:44.325Z,100036.50
2023-03-29T00:35:12.343Z,100043.53
2023-03-29T00:37:39.932Z,100045.59
2023-03-29T00:40:10.810Z,100044.06
2023-03-29T00:42:38.832Z,100043.66
2023-03-29T00:45:19.127Z,100048.63
2023-03-29T00:48:13.392Z,100043.13
2023-03-29T00:50:50.199Z,100036.19
2023-03-29T00:53:36.081Z,100035.25
2023-03-29T00:56:11.979Z,100037.88
2023-03-29T00:58:54.259Z,100029.84
2023-03-29T01:01:34.725Z,100029.28
2023-03-29T01:04:18.126Z,100031.78
2023-03-29T01:07:06.828Z,100021.28
2023-03-29T01:09:40.388Z,100022.25
2023-03-29T01:12:19.861Z,100017.69
2023-03-29T01:14:58.794Z,100014.38
2023-03-29T01:17:27.153Z,100018.78
2023-03-29T01:20:20.255Z,100021.84
2023-03-29T01:23:29.889Z,100015.19
2023-03-29T01:26:27.311Z,100016.53
2023-03-29T01:29:46.006Z,100011.44
2023-03-29T01:32:25.344Z,100012.13
2023-03-29T01:35:24.813Z,100009.38
2023-03-29T01:38:18.878Z,100013.38
2023-03-29T01:40:46.894Z,100008.28
2023-03-29T01:43:36.795Z,100014.63
2023-03-29T01:46:26.703Z,100012.94
2023-03-29T01:49:04.490Z,100006.88
2023-03-29T01:51:51.855Z,100013.22
2023-03-29T01:54:28.800Z,100002.97
2023-03-29T01:56:59.001Z,100006.59
2023-03-29T01:59:33.220Z,100002.28
2023-03-29T02:02:08.414Z,100005.19
2023-03-29T02:04:41.313Z,100004.50
2023-03-29T02:07:10.763Z,100002.16
2023-03-29T02:09:40.292Z,100005.47
2023-03-29T02:12:10.744Z,100000.47
2023-03-29T02:14:38.271Z,100000.47
2023-03-29T02:17:28.012Z,100001.72
2023-03-29T02:20:14.792Z,100002.94
2023-03-29T02:23:02.338Z,99999.63
2023-03-29T02:25:30.302Z,100001.56
2023-03-29T02:27:58.036Z,100007.91
2023-03-29T02:30:35.195Z,100002.78
2023-03-29T02:33:25.839Z,100003.75
2023-03-29T02:36:18.960Z,100012.56
2023-03-29T02:38:47.718Z,100002.47
2023-03-29T02:41:17.971Z,100008.69
2023-03-29T02:43:48.666Z,100009.78
2023-03-29T02:46:18.631Z,100012.41
2023-03-29T02:48:50.093Z,100009.06
2023-03-29T02:51:34.145Z,100006.75
2023-03-29T02:54:20.552Z,100001.63
2023-03-29T02:56:56.500Z,100007.00
2023-03-29T02:59:24.614Z,100007.00
2023-03-29T03:01:52.980Z,100005.31
2023-03-29T03:04:22.290Z,100001.31
2023-03-29T03:06:50.147Z,100010.84
2023-03-29T03:09:19.337Z,100001.72
2023-03-29T03:11:48.142Z,100005.53
2023-03-29T03:14:17.052Z,100010.22
2023-03-29T03:16:44.662Z,100010.22
2023-03-29T03:19:12.188Z,100009.66
2023-03-29T03:21:39.544Z,100009.66
2023-03-29T03:24:07.788Z,100014.09
2023-03-29T03:26:36.022Z,100014.34
2023-03-29T03:29:05.851Z,100013.66
2023-03-29T03:31:56.981Z,100017.06
2023-03-29T03:34:44.193Z,100016.53
2023-03-29T03:37:12.218Z,100012.47
2023-03-29T03:39:40.000Z,100015.94
2023-03-29T03:42:09.297Z,100018.69
2023-03-29T03:44:42.807Z,100017.88
2023-03-29T03:47:37.781Z,100020.88
2023-03-29T03:50:19.622Z,100025.88
2023-03-29T03:52:47.013Z,100020.88
2023-03-29T03:55:15.147Z,100024.44
2023-03-29T03:57:47.982Z,100030.22
2023-03-29T04:00:21.498Z,100026.91
2023-03-29T04:03:17.374Z,100036.28
2023-03-29T04:05:47.233Z,100033.78
2023-03-29T04:08:16.104Z,100028.78
2023-03-29T04:11:07.817Z,100035.84
2023-03-29T04:13:37.896Z,100028.09
2023-03-29T04:16:25.004Z,100039.56
2023-03-29T04:18:52.726Z,100039.56
2023-03-29T04:21:22.473Z,100029.88
2023-03-29T04:23:49.892Z,100030.16
2023-03-29T04:26:18.070Z,100021.84
2023-03-29T04:28:51.422Z,100023.50
2023-03-29T04:31:31.973Z,100029.81
2023-03-29T04:34:19.846Z,100029.94
2023-03-29T04:36:50.292Z,100031.72
2023-03-29T04:39:22.260Z,100021.50
2023-03-29T04:41:55.252Z,100020.31
2023-03-29T04:44:26.970Z,100028.16
2023-03-29T04:46:56.471Z,100021.84
2023-03-29T04:49:53.007Z,100021.00
2023-03-29T04:52:33.473Z,100019.22
2023-03-29T04:55:03.732Z,100012.91
2023-03-29T04:57:44.642Z,100024.06
2023-03-29T05:00:21.608Z,100011.44
2023-03-29T05:03:04.820Z,100009.38
2023-03-29T05:05:35.544Z,100014.50
2023-03-29T05:08:04.629Z,100017.56
2023-03-29T05:10:43.753Z,100018.94
2023-03-29T05:13:12.807Z,100011.53
2023-03-29T05:15:43.017Z,100009.34
2023-03-29T05:18:11.090Z,100006.34
2023-03-29T05:20:38.839Z,100005.00
2023-03-29T05:23:08.620Z,100007.22
2023-03-29T05:25:59.299Z,100014.44
2023-03-29T05:28:27.211Z,100015.69
2023-03-29T05:31:04.871Z,100013.38
2023-03-29T05:33:35.537Z,100019.03
2023-03-29T05:36:14.290Z,100015.19
2023-03-29T05:38:46.779Z,100020.34
2023-03-29T05:41:16.111Z,100020.50
2023-03-29T05:44:17.545Z,100020.38
2023-03-29T05:46:49.422Z,100012.13
2023-03-29T05:49:19.093Z,100027.06
2023-03-29T05:51:58.482Z,100019.63
2023-03-29T05:54:28.676Z,100019.22
2023-03-29T05:56:56.541Z,100023.78
2023-03-29T05:59:24.561Z,100014.94
2023-03-29T06:01:52.218Z,100013.97
2023-03-29T06:04:21.978Z,100013.28
2023-03-29T06:07:02.270Z,100016.31
2023-03-29T06:09:30.629Z,100025.69
2023-03-29T06:12:01.995Z,100012.94
2023-03-29T06:14:40.419Z,100009.31
2023-03-29T06:17:20.358Z,100007.34
2023-03-29T06:19:48.414Z,100007.59
2023-03-29T06:22:18.185Z,100010.25
2023-03-29T06:24:46.331Z,100011.88
2023-03-29T06:27:23.770Z,100010.88
2023-03-29T06:29:51.872Z,100014.28
2023-03-29T06:32:19.893Z,100017.81
2023-03-29T06:34:56.033Z,100019.53
2023-03-29T06:37:37.058Z,100023.97
2023-03-29T06:40:21.316Z,100019.69
2023-03-29T06:42:49.771Z,100021.19
2023-03-29T06:45:40.420Z,100017.53
2023-03-29T06:48:17.798Z,100023.28
2023-03-29T06:50:48.423Z,100018.97
2023-03-29T06:53:20.530Z,100017.91
2023-03-29T06:56:00.041Z,100012.59
2023-03-29T06:58:53.815Z,100015.94
2023-03-29T07:02:04.927Z,100015.50
2023-03-29T07:04:53.393Z,100016.88
2023-03-29T07:07:56.225Z,100023.34
2023-03-29T07:27:03.272Z,100026.91
2023-03-29T07:29:33.755Z,100018.50
2023-03-29T07:32:04.756Z,100017.84
2023-03-29T07:34:46.369Z,100015.44
2023-03-29T07:37:28.699Z,100016.28
2023-03-29T07:40:01.450Z,100014.97
2023-03-29T07:42:59.109Z,100012.75
2023-03-29T07:45:32.038Z,100012.97
2023-03-29T07:48:03.791Z,100010.50
2023-03-29T07:50:54.008Z,100003.22
2023-03-29T07:53:27.491Z,100007.22
2023-03-29T07:55:57.973Z,100006.78
2023-03-29T07:58:47.070Z,100003.19
2023-03-29T08:01:19.785Z,99999.75
2023-03-29T08:04:18.092Z,99999.75
2023-03-29T08:07:04.282Z,100000.03
2023-03-29T08:09:50.477Z,99991.59
2023-03-29T08:12:19.073Z,99990.44
2023-03-29T08:14:46.666Z,99984.28
2023-03-29T08:17:19.813Z,99977.66
2023-03-29T08:19:51.217Z,99979.84
2023-03-29T08:22:22.714Z,99980.09
2023-03-29T08:25:10.042Z,99979.75
2023-03-29T08:27:43.326Z,99982.09
2023-03-29T08:30:12.834Z,99977.28
2023-03-29T08:32:41.921Z,99982.47
2023-03-29T08:35:10.958Z,99971.97
2023-03-29T08:37:45.219Z,99973.69
2023-03-29T08:40:30.175Z,99964.44
2023-03-29T08:43:26.062Z,99969.06
2023-03-29T08:46:35.344Z,99959.13
2023-03-29T08:49:22.030Z,99956.31
2023-03-29T08:51:59.437Z,99955.59
2023-03-29T08:54:39.346Z,99964.72
2023-03-29T08:57:33.095Z,99961.00
2023-03-29T09:00:29.054Z,99944.91
2023-03-29T09:03:00.356Z,99952.41
2023-03-29T09:05:46.478Z,99946.69
2023-03-29T09:08:22.838Z,99952.63
2023-03-29T09:11:29.439Z,99938.13
2023-03-29T09:14:27.820Z,99941.59
2023-03-29T09:17:16.844Z,99945.69
2023-03-29T09:19:54.258Z,99940.84
2023-03-29T09:22:43.196Z,99936.56
2023-03-29T09:25:53.536Z,99932.09
2023-03-29T09:28:39.332Z,99937.59
2023-03-29T09:31:32.870Z,99932.72
2023-03-29T09:34:15.701Z,99933.34
2023-03-29T09:37:26.153Z,99926.38
2023-03-29T09:39:57.001Z,99919.97
2023-03-29T09:42:38.209Z,99922.81
2023-03-29T09:45:10.191Z,99925.34
2023-03-29T09:48:02.587Z,99919.66
2023-03-29T09:50:43.336Z,99911.53
2023-03-29T09:53:15.932Z,99900.91
2023-03-29T09:55:52.139Z,99908.31
2023-03-29T09:58:44.980Z,99909.41
2023-03-29T10:01:17.469Z,99908.59
2023-03-29T10:03:53.545Z,99908.34
2023-03-29T10:06:25.652Z,99894.72
2023-03-29T10:08:59.517Z,99902.41
2023-03-29T10:11:39.304Z,99883.16
2023-03-29T10:14:18.249Z,99886.69
2023-03-29T10:16:47.687Z,99886.88
2023-03-29T10:19:34.946Z,99888.53
2023-03-29T10:22:14.504Z,99887.66
2023-03-29T10:24:52.388Z,99884.63
2023-03-29T10:27:27.712Z,99877.06
2023-03-29T10:29:58.642Z,99882.97
2023-03-29T10:32:35.310Z,99876.63
2023-03-29T10:35:13.575Z,99880.31
2023-03-29T10:37:50.340Z,99874.56
2023-03-29T10:40:40.393Z,99863.81
2023-03-29T10:43:20.089Z,99867.69
2023-03-29T10:46:13.569Z,99856.75
2023-03-29T10:48:57.661Z,99856.75
2023-03-29T10:51:30.295Z,99855.78
2023-03-29T10:53:59.792Z,99855.84
2023-03-29T10:56:53.395Z,99856.63
2023-03-29T10:59:31.032Z,99849.44
2023-03-29T11:02:15.106Z,99850.19
2023-03-29T11:05:13.566Z,99848.13
2023-03-29T11:08:12.646Z,99839.56
2023-03-29T11:11:24.564Z,99836.56
2023-03-29T11:14:16.401Z,99828.72
2023-03-29T11:17:14.527Z,99828.13
2023-03-29T11:20:13.128Z,99820.84
2023-03-29T11:22:52.368Z,99824.69
2023-03-29T11:25:38.315Z,99828.25
2023-03-29T11:28:54.604Z,99819.50
2023-03-29T11:31:39.604Z,99816.75
2023-03-29T11:34:32.858Z,99806.59
2023-03-29T11:37:23.058Z,99802.09
2023-03-29T11:40:24.792Z,99788.59
2023-03-29T11:42:58.541Z,99782.81
2023-03-29T11:45:35.461Z,99781.84
2023-03-29T11:48:14.336Z,99789.56
2023-03-29T11:50:55.020Z,99779.84
2023-03-29T11:53:37.783Z,99773.34
2023-03-29T11:56:23.348Z,99773.91
2023-03-29T11:59:03.034Z,99774.59
2023-03-29T12:01:52.211Z,99765.25
2023-03-29T12:04:42.726Z,99763.59
2023-03-29T12:07:20.151Z,99764.53
2023-03-29T12:10:21.166Z,99767.28
2023-03-29T12:13:00.228Z,99754.75
2023-03-29T12:15:37.124Z,99747.41
2023-03-29T12:18:27.783Z,99748.03
2023-03-29T12:21:03.968Z,99749.06
2023-03-29T12:23:38.926Z,99740.81
2023-03-29T12:26:22.550Z,99733.09
2023-03-29T12:29:05.708Z,99730.19
2023-03-29T12:31:59.108Z,99726.28
2023-03-29T12:34:58.415Z,99726.38
2023-03-29T12:38:12.931Z,99728.78
2023-03-29T12:41:31.056Z,99713.47
2023-03-29T12:44:24.501Z,99713.75
2023-03-29T12:47:23.711Z,99709.41
2023-03-29T12:50:07.449Z,99711.56
2023-03-29T12:52:41.697Z,99706.38
2023-03-29T12:55:33.313Z,99692.44
2023-03-29T12:58:22.860Z,99697.72
2023-03-29T13:01:06.419Z,99686.78
2023-03-29T13:03:40.173Z,99699.66
2023-03-29T13:06:11.614Z,99687.34
2023-03-29T13:08:45.192Z,99696.25
2023-03-29T13:11:48.064Z,99680.25
2023-03-29T13:14:23.799Z,99676.47
2023-03-29T13:16:51.433Z,99674.16
2023-03-29T13:19:41.929Z,99678.78
2023-03-29T13:22:39.461Z,99676.94
2023-03-29T13:25:28.980Z,99670.28
2023-03-29T13:28:28.640Z,99670.13
2023-03-29T13:31:13.383Z,99662.91
2023-03-29T13:34:22.288Z,99662.41
2023-03-29T13:37:35.821Z,99658.50
2023-03-29T13:40:33.512Z,99640.97
2023-03-29T13:43:18.606Z,99637.34
2023-03-29T13:46:21.702Z,99635.22
2023-03-29T13:49:05.865Z,99639.88
2023-03-29T13:51:42.251Z,99627.44
2023-03-29T13:54:29.613Z,99622.78
2023-03-29T13:57:17.786Z,99620.88
2023-03-29T14:00:00.581Z,99615.47
2023-03-29T14:02:43.491Z,99612.78
2023-03-29T14:05:22.726Z,99617.13
2023-03-29T14:07:54.261Z,99620.88
2023-03-29T14:10:32.073Z,99618.66
2023-03-29T14:13:02.298Z,99613.81
2023-03-29T14:15:47.559Z,99620.34
2023-03-29T14:18:21.430Z,99614.91
2023-03-29T14:20:55.652Z,99620.25
2023-03-29T14:23:27.187Z,99613.72
2023-03-29T14:25:54.880Z,99624.53
2023-03-29T14:28:29.653Z,99616.84
2023-03-29T14:30:57.435Z,99609.47
2023-03-29T14:33:34.852Z,99610.19
2023-03-29T14:36:04.808Z,99605.78
2023-03-29T14:38:32.895Z,99613.19
2023-03-29T14:41:03.708Z,99616.31
2023-03-29T14:43:32.179Z,99614.00
2023-03-29T14:46:06.402Z,99612.53
2023-03-29T14:48:35.892Z,99611.63
2023-03-29T14:51:05.656Z,99617.78
2023-03-29T14:53:37.251Z,99617.97
2023-03-29T14:56:07.958Z,99610.66
2023-03-29T14:58:36.551Z,99605.16
2023-03-29T15:01:14.892Z,99598.88
2023-03-29T15:03:56.986Z,99598.22
2023-03-29T15:06:28.633Z,99592.16
2023-03-29T15:09:06.061Z,99599.81
2023-03-29T15:11:36.113Z,99605.56
2023-03-29T15:14:08.989Z,99597.13
2023-03-29T15:16:43.652Z,99600.75
2023-03-29T15:19:17.951Z,99598.00
2023-03-29T15:21:50.778Z,99601.28
2023-03-29T15:24:23.301Z,99595.34
2023-03-29T15:27:14.599Z,99590.03
2023-03-29T15:29:46.357Z,99585.63
2023-03-29T15:32:34.100Z,99584.97
2023-03-29T15:35:07.899Z,99578.38
2023-03-29T15:37:36.802Z,99578.16
2023-03-29T15:40:09.592Z,99578.56
2023-03-29T15:42:37.417Z,99577.16
2023-03-29T15:45:06.690Z,99570.66
2023-03-29T15:47:34.605Z,99574.09
2023-03-29T15:50:02.108Z,99567.06
2023-03-29T15:52:29.975Z,99569.09
2023-03-29T15:54:57.197Z,99570.78
2023-03-29T15:57:25.797Z,99566.09
2023-03-29T15:59:53.074Z,99563.97
2023-03-29T16:02:24.763Z,99568.34
2023-03-29T16:04:52.272Z,99567.41
2023-03-29T16:07:20.918Z,99556.16
2023-03-29T16:09:48.440Z,99553.47
2023-03-29T16:12:16.443Z,99555.16
2023-03-29T16:14:43.989Z,99549.47
2023-03-29T16:17:12.627Z,99551.31
2023-03-29T16:19:40.363Z,99549.69
2023-03-29T16:22:08.262Z,99551.31
2023-03-29T16:24:36.623Z,99549.75
2023-03-29T16:27:04.995Z,99552.88
2023-03-29T16:29:32.779Z,99554.66
2023-03-29T16:32:01.039Z,99557.19
2023-03-29T16:34:28.920Z,99545.22
2023-03-29T16:36:56.942Z,99549.53
2023-03-29T16:39:24.451Z,99547.97
2023-03-29T16:41:52.295Z,99553.19
2023-03-29T16:44:24.404Z,99543.53
2023-03-29T16:46:54.466Z,99548.41
2023-03-29T16:49:22.519Z,99540.06
2023-03-29T16:51:50.528Z,99547.34
2023-03-29T16:54:19.036Z,99542.25
2023-03-29T16:56:47.155Z,99540.91
2023-03-29T16:59:15.508Z,99538.47
2023-03-29T17:01:44.203Z,99546.81
2023-03-29T17:04:19.266Z,99547.03
2023-03-29T17:06:47.484Z,99548.88
2023-03-29T17:09:17.028Z,99544.56
2023-03-29T17:11:45.423Z,99541.06
2023-03-29T17:14:13.999Z,99539.56
2023-03-29T17:16:41.937Z,99539.31
2023-03-29T17:19:09.500Z,99548.75
2023-03-29T17:21:38.801Z,99551.19
2023-03-29T17:24:07.023Z,99547.41
2023-03-29T17:26:36.385Z,99548.22
2023-03-29T17:29:05.117Z,99552.50
2023-03-29T17:31:34.938Z,99561.31
2023-03-29T17:34:03.490Z,99562.66
2023-03-29T17:36:33.821Z,99558.66
2023-03-29T17:39:02.971Z,99558.34
2023-03-29T17:41:31.094Z,99570.44
2023-03-29T17:43:58.705Z,99566.44
2023-03-29T17:46:26.928Z,99561.38
2023-03-29T17:48:54.330Z,99563.75
2023-03-29T17:51:23.716Z,99570.44
2023-03-29T17:53:52.479Z,99566.41
2023-03-29T17:56:21.656Z,99571.00
2023-03-29T17:58:50.416Z,99571.09
2023-03-29T18:01:20.533Z,99576.13
2023-03-29T18:03:55.233Z,99572.88
2023-03-29T18:06:23.748Z,99578.31
2023-03-29T18:08:54.901Z,99581.03
2023-03-29T18:11:29.791Z,99575.97
2023-03-29T18:14:06.154Z,99583.03
2023-03-29T18:16:43.533Z,99596.25
2023-03-29T18:19:13.523Z,99588.06
2023-03-29T18:21:41.157Z,99590.97
2023-03-29T18:24:08.592Z,99579.53
2023-03-29T18:26:36.372Z,99578.97
2023-03-29T18:29:03.779Z,99583.72
2023-03-29T18:31:31.436Z,99582.94
2023-03-29T18:33:58.937Z,99585.03
2023-03-29T18:36:29.665Z,99587.53
2023-03-29T18:39:04.357Z,99598.22
2023-03-29T18:41:37.516Z,99604.84
2023-03-29T18:44:05.411Z,99601.16
2023-03-29T18:46:34.184Z,99596.28
2023-03-29T18:49:02.845Z,99608.22
2023-03-29T18:51:31.021Z,99601.25
2023-03-29T18:53:58.340Z,99606.81
2023-03-29T18:56:26.119Z,99603.34
2023-03-29T18:58:55.280Z,99595.78
2023-03-29T19:01:22.933Z,99600.91
2023-03-29T19:03:50.566Z,99607.28
2023-03-29T19:06:19.334Z,99596.03
2023-03-29T19:08:46.748Z,99590.31
2023-03-29T19:11:15.001Z,99590.50
2023-03-29T19:13:45.744Z,99583.31
2023-03-29T19:16:14.606Z,99587.81
2023-03-29T19:18:42.364Z,99581.69
2023-03-29T19:21:09.969Z,99583.75
2023-03-29T19:23:37.633Z,99589.88
2023-03-29T19:26:06.418Z,99583.72
2023-03-29T19:28:34.801Z,99584.09
2023-03-29T19:31:04.723Z,99588.59
2023-03-29T19:33:32.352Z,99586.91
2023-03-29T19:36:00.231Z,99593.44
2023-03-29T19:38:28.559Z,99592.22
2023-03-29T19:40:56.566Z,99590.56
2023-03-29T19:43:25.038Z,99594.03
2023-03-29T19:45:52.864Z,99592.16
2023-03-29T19:48:23.064Z,99585.22
2023-03-29T19:50:52.238Z,99592.97
2023-03-29T19:53:19.411Z,99588.44
2023-03-29T19:55:48.720Z,99593.31
2023-03-29T19:58:15.840Z,99600.88
2023-03-29T20:00:43.571Z,99602.31
2023-03-29T20:03:11.234Z,99594.09
2023-03-29T20:05:39.615Z,99607.56
2023-03-29T20:08:08.049Z,99609.97
2023-03-29T20:10:36.826Z,99622.22
2023-03-29T20:13:06.594Z,99614.59
2023-03-29T20:15:35.044Z,99600.44
2023-03-29T20:18:02.544Z,99593.06
2023-03-29T20:20:31.712Z,99597.94
2023-03-29T20:23:04.941Z,99588.72
2023-03-29T20:25:36.345Z,99597.91
2023-03-29T20:28:05.026Z,99603.59
2023-03-29T20:30:32.793Z,99603.56
2023-03-29T20:33:00.357Z,99596.97
2023-03-29T20:35:29.830Z,99585.50
2023-03-29T20:37:57.284Z,99589.56
2023-03-29T20:40:24.944Z,99592.78
2023-03-29T20:42:54.225Z,99577.19
2023-03-29T20:45:21.993Z,99587.56
2023-03-29T20:48:02.048Z,99579.97
2023-03-29T20:50:30.197Z,99584.03
2023-03-29T20:53:03.919Z,99579.13
2023-03-29T20:55:33.576Z,99581.50
2023-03-29T20:58:02.228Z,99576.34
2023-03-29T21:00:33.797Z,99572.19
2023-03-29T21:03:04.111Z,99573.50
2023-03-29T21:05:33.914Z,99565.91
2023-03-29T21:08:01.531Z,99565.09
2023-03-29T21:10:29.872Z,99560.81
2023-03-29T21:13:02.815Z,99568.50
2023-03-29T21:15:31.174Z,99565.22
2023-03-29T21:17:59.017Z,99558.66
2023-03-29T21:20:27.816Z,99560.22
2023-03-29T21:22:55.323Z,99556.09
2023-03-29T21:25:23.092Z,99554.19
2023-03-29T21:27:50.771Z,99547.63
2023-03-29T21:30:18.336Z,99540.81
2023-03-29T21:32:45.661Z,99542.38
2023-03-29T21:35:13.562Z,99548.88
2023-03-29T21:37:41.450Z,99556.19
2023-03-29T21:40:10.794Z,99556.91
2023-03-29T21:42:38.733Z,99547.88
2023-03-29T21:45:07.271Z,99554.75
2023-03-29T21:47:34.557Z,99545.34
2023-03-29T21:50:02.883Z,99553.88
2023-03-29T21:52:30.213Z,99550.94
2023-03-29T21:54:57.756Z,99553.31
2023-03-29T21:57:25.357Z,99554.31
2023-03-29T21:59:53.227Z,99556.69
2023-03-29T22:02:20.609Z,99558.50
2023-03-29T22:04:48.464Z,99551.13
2023-03-29T22:07:15.790Z,99555.78
2023-03-29T22:09:43.732Z,99543.53
2023-03-29T22:12:12.336Z,99546.56
2023-03-29T22:14:40.035Z,99544.91
2023-03-29T22:17:07.951Z,99542.63
2023-03-29T22:19:39.693Z,99549.31
2023-03-29T22:22:13.965Z,99549.66
2023-03-29T22:24:42.810Z,99543.00
2023-03-29T22:27:11.770Z,99547.84
2023-03-29T22:29:39.542Z,99549.66
2023-03-29T22:32:07.203Z,99541.09
2023-03-29T22:34:35.038Z,99539.44
2023-03-29T22:37:03.384Z,99540.47
2023-03-29T22:39:31.203Z,99534.69
2023-03-29T22:41:58.341Z,99532.25
2023-03-29T22:44:26.073Z,99535.25
2023-03-29T22:46:53.539Z,99539.28
2023-03-29T22:49:21.365Z,99539.63
2023-03-29T22:51:48.807Z,99524.94
2023-03-29T22:54:16.735Z,99535.03
2023-03-29T22:56:44.088Z,99531.75
2023-03-29T22:59:11.988Z,99533.78
2023-03-29T23:01:39.497Z,99527.66
2023-03-29T23:04:07.465Z,99528.19
2023-03-29T23:06:34.682Z,99525.56
2023-03-29T23:09:02.780Z,99525.91
2023-03-29T23:11:29.949Z,99520.63
2023-03-29T23:13:57.571Z,99522.63
2023-03-29T23:16:25.609Z,99522.63
2023-03-29T23:18:53.501Z,99512.41
2023-03-29T23:21:21.177Z,99521.34
2023-03-29T23:23:49.732Z,99510.13
2023-03-29T23:26:17.488Z,99505.84
2023-03-29T23:28:45.945Z,99514.75
2023-03-29T23:31:18.460Z,99516.41
2023-03-29T23:33:47.115Z,99511.13
2023-03-29T23:36:18.243Z,99506.19
2023-03-29T23:38:47.223Z,99511.13
2023-03-29T23:41:15.123Z,99498.88
2023-03-29T23:43:44.738Z,99497.91
2023-03-29T23:46:15.446Z,99498.53
2023-03-29T23:48:50.739Z,99489.59
2023-03-29T23:51:23.283Z,99496.53
2023-03-29T23:53:51.787Z,99488.56
2023-03-29T23:56:19.331Z,99485.56
2023-03-29T23:58:47.460Z,99483.94
